Time;durP1;ratioP1;P1;durP2;ratioP2;P2;SDS_P1;SDS_P2;PMS_P1;PMS_P2;Temp;Humidity;BMP_temperature;BMP_pressure;BME280_temperature;BME280_humidity;BME280_pressure;Samples;Min_cycle;Max_cycle;Signal;HPM_P1;HPM_P2
2022/02/12 00:00:11;;;;;;;16.58;5.57;;;;;;;;;;5023010;28;20144;-61
2022/02/12 00:02:38;;;;;;;21.92;5.72;;;;;;;;;;5019196;28;20055;-59
2022/02/12 00:05:06;;;;;;;13.90;4.78;;;;;;;;;;5026983;28;20069;-61
2022/02/12 00:07:32;;;;;;;14.82;4.72;;;;;;;;;;5019535;28;20081;-61
2022/02/12 00:10:00;;;;;;;10.18;3.70;;;;;;;;;;5022867;28;20077;-58
2022/02/12 00:12:26;;;;;;;12.20;3.97;;;;;;;;;;5020107;28;20054;-57
2022/02/12 00:14:55;;;;;;;14.60;3.78;;;;;;;;;;5025434;28;20132;-59
2022/02/12 00:17:22;;;;;;;11.63;3.75;;;;;;;;;;5023284;28;20332;-60
2022/02/12 00:19:49;;;;;;;11.13;3.80;;;;;;;;;;5018305;28;20188;-60
2022/02/12 00:22:17;;;;;;;13.57;3.47;;;;;;;;;;5027000;28;20499;-60
2022/02/12 00:24:43;;;;;;;13.52;3.47;;;;;;;;;;5020190;28;20104;-60
2022/02/12 00:27:10;;;;;;;10.80;3.42;;;;;;;;;;5022642;28;20069;-61
2022/02/12 00:29:37;;;;;;;10.55;3.45;;;;;;;;;;5014012;28;20037;-60
2022/02/12 00:32:05;;;;;;;22.33;3.65;;;;;;;;;;5018901;28;20293;-61
2022/02/12 00:34:31;;;;;;;9.88;3.42;;;;;;;;;;5013445;28;20073;-60
2022/02/12 00:36:58;;;;;;;11.68;3.65;;;;;;;;;;5027671;28;20080;-60
2022/02/12 00:39:26;;;;;;;10.90;3.50;;;;;;;;;;5021855;28;20080;-59
2022/02/12 00:41:52;;;;;;;17.52;3.75;;;;;;;;;;5028214;28;20053;-60
2022/02/12 00:44:19;;;;;;;11.52;2.90;;;;;;;;;;5013081;28;20148;-61
2022/02/12 00:46:45;;;;;;;10.13;3.25;;;;;;;;;;5044292;28;20148;-60
2022/02/12 00:49:12;;;;;;;13.35;3.13;;;;;;;;;;5038583;28;20122;-60
2022/02/12 00:51:39;;;;;;;10.80;3.17;;;;;;;;;;5027440;28;20155;-61
2022/02/12 00:54:05;;;;;;;16.77;3.38;;;;;;;;;;5020618;28;20247;-62
2022/02/12 00:56:34;;;;;;;11.52;3.60;;;;;;;;;;5006289;28;20132;-61
2022/02/12 00:59:00;;;;;;;14.32;3.28;;;;;;;;;;5007553;28;20054;-61
2022/02/12 01:01:27;;;;;;;13.20;3.35;;;;;;;;;;5003023;28;20060;-62
2022/02/12 01:03:54;;;;;;;12.77;3.33;;;;;;;;;;5024914;28;20333;-58
2022/02/12 01:06:21;;;;;;;12.65;3.10;;;;;;;;;;5018805;28;20045;-60
2022/02/12 01:08:47;;;;;;;11.07;4.03;;;;;;;;;;5028838;28;20487;-60
2022/02/12 01:11:14;;;;;;;12.63;3.00;;;;;;;;;;5009905;28;20484;-60
2022/02/12 01:13:42;;;;;;;11.98;3.00;;;;;;;;;;5016485;28;20049;-59
2022/02/12 01:16:08;;;;;;;12.40;3.53;;;;;;;;;;5020364;28;20080;-62
2022/02/12 01:18:35;;;;;;;10.98;3.10;;;;;;;;;;5028069;28;20132;-61
2022/02/12 01:21:03;;;;;;;10.82;3.13;;;;;;;;;;5021910;28;20569;-60
2022/02/12 01:23:29;;;;;;;8.98;2.85;;;;;;;;;;5027948;28;20049;-58
2022/02/12 01:25:56;;;;;;;9.60;3.22;;;;;;;;;;5021138;28;20140;-58
2022/02/12 01:28:22;;;;;;;13.48;3.33;;;;;;;;;;5027381;28;20050;-58
2022/02/12 01:30:51;;;;;;;11.02;3.20;;;;;;;;;;5017798;28;20057;-57
2022/02/12 01:33:18;;;;;;;8.35;2.88;;;;;;;;;;5023438;28;20084;-58
2022/02/12 01:35:45;;;;;;;11.85;3.30;;;;;;;;;;5003579;28;20491;-59
2022/02/12 01:38:11;;;;;;;14.82;2.97;;;;;;;;;;5027068;28;20071;-59
2022/02/12 01:40:38;;;;;;;9.05;2.90;;;;;;;;;;5026771;28;20060;-56
2022/02/12 01:43:07;;;;;;;12.52;3.17;;;;;;;;;;5021062;28;20080;-58
2022/02/12 01:45:33;;;;;;;;;;;;;;;;;;5027234;28;20056;-61
2022/02/12 01:48:01;;;;;;;13.60;3.00;;;;;;;;;;5020601;28;19948;-58
2022/02/12 01:50:29;;;;;;;12.75;3.17;;;;;;;;;;5043235;28;20113;-60
2022/02/12 01:52:55;;;;;;;11.05;2.92;;;;;;;;;;5036882;28;20065;-57
2022/02/12 01:55:22;;;;;;;12.13;2.97;;;;;;;;;;5042428;28;20136;-58
2022/02/12 01:57:49;;;;;;;14.82;3.17;;;;;;;;;;5038042;28;20141;-59
2022/02/12 02:00:17;;;;;;;7.57;2.45;;;;;;;;;;5026819;28;20162;-58
2022/02/12 02:02:44;;;;;;;8.05;2.65;;;;;;;;;;5036783;28;20073;-57
2022/02/12 02:05:12;;;;;;;15.25;3.13;;;;;;;;;;5026573;28;20053;-58
2022/02/12 02:07:39;;;;;;;9.05;2.70;;;;;;;;;;5014504;28;20054;-61
2022/02/12 02:10:06;;;;;;;10.45;3.05;;;;;;;;;;5007170;28;20514;-58
2022/02/12 02:12:33;;;;;;;11.85;3.22;;;;;;;;;;5017819;28;20108;-58
2022/02/12 02:14:59;;;;;;;7.88;2.50;;;;;;;;;;5024556;28;20077;-61
2022/02/12 02:17:26;;;;;;;13.10;3.05;;;;;;;;;;5018502;28;20578;-62
2022/02/12 02:19:53;;;;;;;9.70;2.70;;;;;;;;;;5006815;28;20061;-56
2022/02/12 02:22:25;;;;;;;8.40;2.55;;;;;;;;;;5006686;28;20054;-61
2022/02/12 02:24:53;;;;;;;14.18;3.30;;;;;;;;;;5024771;28;20490;-62
2022/02/12 02:27:21;;;;;;;7.35;2.80;;;;;;;;;;5027776;28;20053;-59
2022/02/12 02:29:49;;;;;;;10.48;2.75;;;;;;;;;;5023170;28;20140;-61
2022/02/12 02:32:17;;;;;;;9.13;2.80;;;;;;;;;;5030183;28;20049;-62
2022/02/12 02:34:48;;;;;;;8.93;2.90;;;;;;;;;;5022095;28;20050;-61
2022/02/12 02:37:14;;;;;;;7.22;2.65;;;;;;;;;;5027821;28;20074;-61
2022/02/12 02:39:43;;;;;;;14.82;2.67;;;;;;;;;;5037747;28;20077;-61
2022/02/12 02:42:12;;;;;;;9.10;2.65;;;;;;;;;;5031388;28;20062;-63
2022/02/12 02:44:38;;;;;;;9.02;3.08;;;;;;;;;;5029769;28;20056;-59
2022/02/12 02:47:32;;;;;;;10.60;2.75;;;;;;;;;;5009822;28;20551;-61
2022/02/12 02:49:53;;;;;;;12.63;3.30;;;;;;;;;;5004673;28;20112;-60
2022/02/12 02:57:48;;;;;;;7.90;3.13;;;;;;;;;;5017746;28;20221;-61
2022/02/12 03:00:16;;;;;;;9.43;2.38;;;;;;;;;;5040853;28;20041;-60
2022/02/12 03:02:42;;;;;;;12.70;2.70;;;;;;;;;;5045680;28;20061;-60
2022/02/12 03:05:09;;;;;;;10.73;2.92;;;;;;;;;;5034032;28;20052;-58
2022/02/12 03:07:35;;;;;;;8.82;2.78;;;;;;;;;;5029000;28;20049;-62
2022/02/12 03:10:05;;;;;;;7.15;2.60;;;;;;;;;;5023497;28;20053;-61
2022/02/12 03:12:33;;;;;;;14.77;3.15;;;;;;;;;;5028857;28;20054;-61
2022/02/12 03:15:00;;;;;;;9.63;2.95;;;;;;;;;;5040597;28;20466;-62
2022/02/12 03:17:27;;;;;;;11.40;3.17;;;;;;;;;;5047979;28;20057;-60
2022/02/12 03:19:54;;;;;;;7.20;2.50;;;;;;;;;;5042183;28;20397;-62
2022/02/12 03:22:22;;;;;;;10.75;2.88;;;;;;;;;;5028637;28;20119;-59
2022/02/12 03:24:49;;;;;;;8.13;2.78;;;;;;;;;;5026260;28;20128;-61
2022/02/12 03:27:15;;;;;;;9.40;2.97;;;;;;;;;;5027513;28;20053;-58
2022/02/12 03:29:42;;;;;;;8.30;2.45;;;;;;;;;;5034979;28;20077;-62
2022/02/12 03:32:10;;;;;;;8.00;2.83;;;;;;;;;;5042899;28;20537;-60
2022/02/12 03:34:36;;;;;;;7.63;2.50;;;;;;;;;;5049346;28;20060;-61
2022/02/12 03:37:03;;;;;;;10.15;3.08;;;;;;;;;;5074150;28;20129;-63
2022/02/12 03:39:30;;;;;;;10.23;3.13;;;;;;;;;;5069149;28;20063;-59
2022/02/12 03:41:56;;;;;;;8.93;2.70;;;;;;;;;;5037624;28;20057;-59
2022/02/12 03:44:23;;;;;;;9.13;3.08;;;;;;;;;;5029037;28;20057;-57
2022/02/12 03:46:49;;;;;;;10.98;2.65;;;;;;;;;;5032216;28;20126;-57
2022/02/12 03:49:17;;;;;;;12.85;2.72;;;;;;;;;;5049153;28;20391;-58
2022/02/12 03:51:43;;;;;;;8.57;3.10;;;;;;;;;;5043280;28;20064;-57
2022/02/12 03:54:10;;;;;;;10.38;3.10;;;;;;;;;;5057170;28;20486;-59
2022/02/12 03:56:37;;;;;;;9.65;2.95;;;;;;;;;;5058379;28;20052;-55
2022/02/12 03:59:03;;;;;;;13.23;2.95;;;;;;;;;;5049644;28;20139;-55
2022/02/12 04:01:30;;;;;;;10.43;3.60;;;;;;;;;;5041312;28;20084;-60
2022/02/12 04:03:56;;;;;;;7.60;2.95;;;;;;;;;;5038857;28;20095;-59
2022/02/12 04:06:24;;;;;;;10.57;3.25;;;;;;;;;;5050234;28;20049;-53
2022/02/12 04:08:51;;;;;;;10.23;2.65;;;;;;;;;;5047383;28;20494;-59
2022/02/12 04:11:18;;;;;;;9.05;2.58;;;;;;;;;;5049046;28;20122;-61
2022/02/12 04:13:46;;;;;;;8.50;3.03;;;;;;;;;;5042879;28;20152;-55
2022/02/12 04:16:13;;;;;;;;;;;;;;;;;;5047846;28;20053;-59
2022/02/12 04:18:39;;;;;;;13.23;2.60;;;;;;;;;;5041657;28;19972;-58
2022/02/12 04:21:12;;;;;;;11.23;3.05;;;;;;;;;;5048134;28;20514;-62
2022/02/12 04:23:40;;;;;;;9.85;2.83;;;;;;;;;;5041668;28;20060;-59
2022/02/12 04:26:09;;;;;;;8.13;2.40;;;;;;;;;;5047569;28;20095;-60
2022/02/12 04:28:37;;;;;;;6.60;2.58;;;;;;;;;;5042099;28;20056;-61
2022/02/12 04:31:04;;;;;;;9.85;2.97;;;;;;;;;;5048008;28;20048;-60
2022/02/12 04:33:31;;;;;;;7.50;2.92;;;;;;;;;;5041559;28;20128;-61
2022/02/12 04:35:57;;;;;;;7.78;2.80;;;;;;;;;;5047092;28;20049;-61
2022/02/12 04:38:24;;;;;;;11.80;2.55;;;;;;;;;;5041318;28;20187;-61
2022/02/12 04:40:52;;;;;;;9.15;2.70;;;;;;;;;;5063614;28;20517;-60
2022/02/12 04:43:19;;;;;;;7.47;2.65;;;;;;;;;;5042478;28;20095;-59
2022/02/12 04:45:45;;;;;;;10.30;2.95;;;;;;;;;;5046366;28;20126;-59
2022/02/12 04:48:12;;;;;;;9.70;2.53;;;;;;;;;;5040500;28;20450;-62
2022/02/12 04:50:39;;;;;;;17.05;2.83;;;;;;;;;;5046285;28;20114;-59
2022/02/12 04:53:06;;;;;;;8.97;3.00;;;;;;;;;;5047397;28;20099;-60
2022/02/12 04:55:33;;;;;;;9.57;2.58;;;;;;;;;;5041549;28;20517;-62
2022/02/12 04:58:01;;;;;;;10.43;2.60;;;;;;;;;;5047206;28;20057;-58
2022/02/12 05:00:29;;;;;;;11.70;2.20;;;;;;;;;;5041404;28;20451;-58
2022/02/12 05:02:55;;;;;;;7.43;2.30;;;;;;;;;;5047211;28;20056;-58
2022/02/12 05:05:22;;;;;;;12.15;2.95;;;;;;;;;;5058445;28;20150;-60
2022/02/12 05:07:48;;;;;;;9.15;2.83;;;;;;;;;;5063652;28;20666;-56
2022/02/12 05:10:15;;;;;;;7.13;2.33;;;;;;;;;;5041388;28;20506;-60
2022/02/12 05:12:42;;;;;;;14.50;2.85;;;;;;;;;;5046814;28;20057;-59
2022/02/12 05:15:10;;;;;;;8.10;2.40;;;;;;;;;;5040165;28;20063;-58
2022/02/12 05:17:36;;;;;;;5.32;1.95;;;;;;;;;;5047165;28;20107;-60
2022/02/12 05:20:03;;;;;;;10.05;2.60;;;;;;;;;;5041639;28;20064;-60
2022/02/12 05:22:30;;;;;;;13.50;2.88;;;;;;;;;;5047287;28;20073;-55
2022/02/12 05:24:57;;;;;;;6.53;2.13;;;;;;;;;;5042101;28;20080;-58
2022/02/12 05:27:23;;;;;;;13.52;2.45;;;;;;;;;;5063757;28;20118;-61
2022/02/12 05:29:50;;;;;;;8.82;2.70;;;;;;;;;;5041829;28;20135;-58
2022/02/12 05:32:18;;;;;;;6.63;2.10;;;;;;;;;;5047647;28;20131;-60
2022/02/12 05:34:45;;;;;;;5.93;2.27;;;;;;;;;;5027028;28;20112;-61
2022/02/12 05:37:11;;;;;;;8.93;2.90;;;;;;;;;;5039477;28;20384;-63
2022/02/12 05:39:40;;;;;;;6.05;2.60;;;;;;;;;;5064697;28;20041;-58
2022/02/12 05:42:06;;;;;;;;;;;;;;;;;;5058934;28;20044;-59
2022/02/12 05:44:33;;;;;;;6.80;2.30;;;;;;;;;;5047162;28;19928;-62
2022/02/12 05:47:00;;;;;;;9.90;2.92;;;;;;;;;;5041698;28;20463;-60
2022/02/12 05:49:28;;;;;;;9.30;1.98;;;;;;;;;;5063473;28;20053;-57
2022/02/12 05:51:54;;;;;;;13.10;2.78;;;;;;;;;;5057534;28;20106;-57
2022/02/12 05:54:21;;;;;;;10.20;2.83;;;;;;;;;;5062939;28;20106;-57
2022/02/12 05:56:47;;;;;;;13.07;2.50;;;;;;;;;;5040354;28;20069;-58
2022/02/12 05:59:16;;;;;;;8.50;2.90;;;;;;;;;;5047060;28;20067;-57
2022/02/12 06:01:42;;;;;;;10.63;2.45;;;;;;;;;;5041455;28;20498;-58
2022/02/12 06:04:09;;;;;;;12.00;2.78;;;;;;;;;;5047321;28;20108;-58
2022/02/12 06:06:37;;;;;;;20.48;2.97;;;;;;;;;;5043546;28;20110;-58
2022/02/12 06:09:07;;;;;;;4.82;1.80;;;;;;;;;;5050141;28;20060;-57
2022/02/12 06:11:33;;;;;;;8.30;2.35;;;;;;;;;;5040925;28;20056;-60
2022/02/12 06:14:00;;;;;;;9.18;2.58;;;;;;;;;;5042784;28;20049;-57
2022/02/12 06:16:27;;;;;;;8.18;2.45;;;;;;;;;;5028084;28;20057;-55
2022/02/12 06:18:53;;;;;;;7.80;2.72;;;;;;;;;;5025684;28;20049;-56
2022/02/12 06:21:20;;;;;;;7.45;2.10;;;;;;;;;;5029962;28;20053;-54
2022/02/12 06:23:47;;;;;;;12.02;3.28;;;;;;;;;;5023830;28;20065;-62
2022/02/12 06:26:14;;;;;;;15.15;2.60;;;;;;;;;;5045929;28;20084;-60
2022/02/12 06:28:40;;;;;;;9.45;3.00;;;;;;;;;;5023885;28;20057;-59
2022/02/12 06:31:07;;;;;;;6.43;2.78;;;;;;;;;;5026486;28;20049;-60
2022/02/12 06:33:34;;;;;;;6.72;2.20;;;;;;;;;;5022395;28;20052;-58
2022/02/12 06:36:01;;;;;;;5.13;2.10;;;;;;;;;;5028083;28;20136;-59
2022/02/12 06:38:28;;;;;;;10.57;2.67;;;;;;;;;;5022937;28;20064;-60
2022/02/12 06:40:57;;;;;;;7.95;2.85;;;;;;;;;;5027364;28;20212;-58
2022/02/12 06:43:24;;;;;;;14.63;2.83;;;;;;;;;;5020379;28;20142;-61
2022/02/12 06:45:50;;;;;;;12.15;3.22;;;;;;;;;;5027892;28;20200;-61
2022/02/12 06:48:18;;;;;;;10.98;2.63;;;;;;;;;;5023230;28;20057;-61
2022/02/12 06:50:49;;;;;;;19.55;3.10;;;;;;;;;;5028686;28;20163;-61
2022/02/12 06:53:16;;;;;;;10.07;2.95;;;;;;;;;;5022432;28;20045;-59
2022/02/12 06:55:43;;;;;;;12.50;2.92;;;;;;;;;;5028644;28;20111;-62
2022/02/12 06:58:11;;;;;;;9.00;2.85;;;;;;;;;;5019470;28;20057;-58
2022/02/12 07:00:38;;;;;;;10.38;2.45;;;;;;;;;;5029686;28;20414;-56
2022/02/12 07:03:05;;;;;;;10.87;3.17;;;;;;;;;;5029994;28;20053;-60
2022/02/12 07:05:32;;;;;;;10.15;2.60;;;;;;;;;;5023050;28;20049;-62
2022/02/12 07:07:58;;;;;;;18.15;3.13;;;;;;;;;;5028340;28;20141;-60
2022/02/12 07:10:25;;;;;;;13.88;3.72;;;;;;;;;;5021753;28;20057;-60
2022/02/12 07:12:51;;;;;;;12.50;2.95;;;;;;;;;;5027864;28;20057;-61
2022/02/12 07:15:19;;;;;;;8.23;2.42;;;;;;;;;;5021859;28;20069;-61
2022/02/12 07:17:46;;;;;;;10.27;3.05;;;;;;;;;;5028326;28;20060;-59
2022/02/12 07:20:13;;;;;;;15.75;2.85;;;;;;;;;;5021458;28;20080;-61
2022/02/12 07:22:41;;;;;;;8.52;2.78;;;;;;;;;;5028198;28;20103;-61
2022/02/12 07:25:08;;;;;;;9.77;3.10;;;;;;;;;;5021115;28;20044;-60
2022/02/12 07:27:35;;;;;;;10.90;3.60;;;;;;;;;;5028095;28;20478;-60
2022/02/12 07:30:02;;;;;;;12.63;2.95;;;;;;;;;;5022009;28;20132;-58
2022/02/12 07:32:30;;;;;;;8.55;3.08;;;;;;;;;;5028002;28;20152;-57
2022/02/12 07:34:57;;;;;;;9.85;2.88;;;;;;;;;;5021474;28;20483;-60
2022/02/12 07:37:23;;;;;;;11.73;2.95;;;;;;;;;;5027413;28;20081;-61
2022/02/12 07:39:51;;;;;;;8.40;2.58;;;;;;;;;;5021423;28;20060;-61
2022/02/12 07:42:17;;;;;;;15.13;3.38;;;;;;;;;;5044849;28;20054;-60
2022/02/12 07:44:44;;;;;;;8.30;2.70;;;;;;;;;;5027745;28;20061;-61
2022/02/12 07:47:10;;;;;;;11.88;3.20;;;;;;;;;;5021761;28;20602;-57
2022/02/12 07:49:38;;;;;;;8.20;2.70;;;;;;;;;;5042159;28;20057;-60
2022/02/12 07:52:05;;;;;;;17.73;3.85;;;;;;;;;;5020362;28;20053;-60
2022/02/12 07:54:31;;;;;;;11.10;3.08;;;;;;;;;;5028040;28;20049;-60
2022/02/12 07:56:59;;;;;;;5.30;2.25;;;;;;;;;;5021566;28;20116;-60
2022/02/12 07:59:26;;;;;;;7.18;2.75;;;;;;;;;;5028551;28;20134;-61
2022/02/12 08:01:52;;;;;;;11.02;2.97;;;;;;;;;;5021754;28;20488;-57
2022/02/12 08:04:19;;;;;;;8.65;2.50;;;;;;;;;;5045267;28;20103;-59
2022/02/12 08:09:38;;;;;;;16.80;2.63;;;;;;;;;;5018085;28;20053;-60
2022/02/12 08:12:13;;;;;;;8.25;2.40;;;;;;;;;;5022188;28;20055;-58
2022/02/12 08:14:40;;;;;;;8.82;2.97;;;;;;;;;;5027956;28;20144;-57
2022/02/12 08:17:06;;;;;;;15.98;3.13;;;;;;;;;;5021921;28;20049;-57
2022/02/12 08:19:33;;;;;;;12.85;2.83;;;;;;;;;;5027775;28;20127;-57
2022/02/12 08:22:01;;;;;;;7.50;2.42;;;;;;;;;;5021658;28;20061;-56
2022/02/12 08:24:27;;;;;;;12.37;2.83;;;;;;;;;;5039946;28;20053;-55
2022/02/12 08:26:54;;;;;;;9.30;2.72;;;;;;;;;;5020698;28;20080;-57
2022/02/12 08:29:28;;;;;;;10.70;2.72;;;;;;;;;;5025770;28;20062;-53
2022/02/12 08:31:54;;;;;;;13.93;2.33;;;;;;;;;;5020506;28;20152;-61
2022/02/12 08:34:21;;;;;;;7.60;3.00;;;;;;;;;;5024619;28;20063;-59
2022/02/12 08:36:48;;;;;;;10.40;2.45;;;;;;;;;;5025705;28;20045;-60
2022/02/12 08:39:21;;;;;;;9.32;2.38;;;;;;;;;;5019924;28;20149;-61
2022/02/12 08:41:48;;;;;;;24.38;2.80;;;;;;;;;;5026075;28;20153;-61
2022/02/12 08:44:14;;;;;;;10.77;2.67;;;;;;;;;;5018443;28;20095;-60
2022/02/12 08:46:41;;;;;;;8.70;2.35;;;;;;;;;;5025365;28;20123;-61
2022/02/12 08:49:08;;;;;;;15.73;2.95;;;;;;;;;;5020248;28;20087;-60
2022/02/12 08:51:37;;;;;;;10.23;2.83;;;;;;;;;;5025291;28;20053;-63
2022/02/12 08:54:04;;;;;;;8.30;2.35;;;;;;;;;;5019457;28;20144;-62
2022/02/12 08:56:32;;;;;;;14.65;2.45;;;;;;;;;;5025203;28;20065;-62
2022/02/12 08:58:59;;;;;;;9.45;2.58;;;;;;;;;;5018770;28;20542;-63
2022/02/12 09:01:26;;;;;;;10.45;2.95;;;;;;;;;;5040256;28;20053;-61
2022/02/12 09:03:52;;;;;;;6.50;2.78;;;;;;;;;;5018560;28;20476;-63
2022/02/12 09:06:19;;;;;;;9.88;2.90;;;;;;;;;;5024664;28;20110;-62
2022/02/12 09:08:48;;;;;;;9.00;2.10;;;;;;;;;;5018655;28;20045;-64
2022/02/12 09:11:16;;;;;;;8.57;2.53;;;;;;;;;;5024504;28;20049;-59
2022/02/12 09:13:44;;;;;;;9.25;2.08;;;;;;;;;;5034199;28;20064;-62
2022/02/12 09:16:11;;;;;;;5.65;2.08;;;;;;;;;;5041469;28;20053;-60
2022/02/12 09:18:38;;;;;;;9.25;2.30;;;;;;;;;;5020122;28;20383;-60
2022/02/12 09:21:05;;;;;;;6.13;2.25;;;;;;;;;;5025778;28;20077;-58
2022/02/12 09:23:31;;;;;;;13.18;2.85;;;;;;;;;;5025705;28;20089;-59
2022/02/12 09:25:58;;;;;;;12.38;3.25;;;;;;;;;;5018986;28;20084;-60
2022/02/12 09:28:25;;;;;;;10.60;2.90;;;;;;;;;;5025261;28;20056;-60
2022/02/12 09:30:54;;;;;;;11.23;2.38;;;;;;;;;;5017582;28;20061;-59
2022/02/12 09:33:20;;;;;;;10.15;3.20;;;;;;;;;;5023552;28;20356;-60
2022/02/12 09:35:53;;;;;;;10.82;2.80;;;;;;;;;;5019699;28;20049;-61
2022/02/12 09:38:20;;;;;;;8.65;3.22;;;;;;;;;;5029398;28;20068;-61
2022/02/12 09:40:46;;;;;;;10.20;2.80;;;;;;;;;;5022422;28;20057;-61
2022/02/12 09:43:13;;;;;;;11.73;2.72;;;;;;;;;;5029032;28;20075;-59
2022/02/12 09:45:40;;;;;;;7.50;2.50;;;;;;;;;;5021046;28;20152;-59
2022/02/12 09:48:10;;;;;;;12.15;2.90;;;;;;;;;;5028254;28;20123;-60
2022/02/12 09:50:37;;;;;;;5.78;2.65;;;;;;;;;;5039033;28;20057;-61
2022/02/12 09:53:04;;;;;;;7.00;2.55;;;;;;;;;;5028830;28;20073;-58
2022/02/12 09:55:33;;;;;;;8.07;2.35;;;;;;;;;;5021593;28;20057;-61
2022/02/12 09:57:59;;;;;;;5.93;2.50;;;;;;;;;;5029844;28;20140;-62
2022/02/12 10:00:27;;;;;;;7.43;2.50;;;;;;;;;;5022560;28;20073;-61
2022/02/12 10:02:54;;;;;;;10.45;2.70;;;;;;;;;;5044140;28;20534;-60
2022/02/12 10:05:24;;;;;;;5.90;2.30;;;;;;;;;;5026286;28;20612;-58
2022/02/12 10:07:51;;;;;;;8.90;2.05;;;;;;;;;;5024351;28;20085;-61
2022/02/12 10:10:20;;;;;;;7.72;2.80;;;;;;;;;;5029043;28;20053;-60
2022/02/12 10:12:47;;;;;;;15.13;2.90;;;;;;;;;;5022742;28;20042;-59
2022/02/12 10:15:14;;;;;;;9.07;2.67;;;;;;;;;;5028487;28;20053;-58
2022/02/12 10:17:54;;;;;;;9.00;2.35;;;;;;;;;;5021383;28;20076;-58
2022/02/12 10:20:28;;;;;;;9.15;2.33;;;;;;;;;;5028123;28;20053;-57
2022/02/12 10:23:02;;;;;;;10.27;2.55;;;;;;;;;;5021007;28;20060;-57
2022/02/12 10:25:28;;;;;;;8.50;2.67;;;;;;;;;;5024835;28;20066;-56
2022/02/12 10:27:55;;;;;;;3.53;1.48;;;;;;;;;;5021739;28;20053;-57
2022/02/12 10:30:25;;;;;;;9.70;2.40;;;;;;;;;;5028159;28;20061;-60
2022/02/12 10:32:54;;;;;;;13.23;2.28;;;;;;;;;;5037163;28;20060;-57
2022/02/12 10:35:20;;;;;;;6.43;2.22;;;;;;;;;;5043264;28;20057;-61
2022/02/12 10:37:48;;;;;;;6.22;1.80;;;;;;;;;;5021536;28;20099;-58
2022/02/12 10:40:15;;;;;;;5.90;2.22;;;;;;;;;;5027714;28;20165;-60
2022/02/12 10:42:46;;;;;;;6.47;2.13;;;;;;;;;;5021205;28;20514;-61
2022/02/12 10:45:16;;;;;;;7.63;2.35;;;;;;;;;;5043208;28;20060;-60
2022/02/12 10:47:43;;;;;;;7.97;2.22;;;;;;;;;;5021606;28;20060;-61
2022/02/12 10:50:11;;;;;;;9.65;2.33;;;;;;;;;;5028971;28;20073;-59
2022/02/12 10:52:42;;;;;;;13.65;2.63;;;;;;;;;;5022861;28;20137;-60
2022/02/12 10:55:21;;;;;;;9.77;2.38;;;;;;;;;;5027947;28;20601;-58
2022/02/12 10:57:47;;;;;;;12.82;2.80;;;;;;;;;;5019823;28;20050;-60
2022/02/12 11:00:15;;;;;;;5.88;2.13;;;;;;;;;;5028135;28;20049;-58
2022/02/12 11:02:44;;;;;;;11.25;2.60;;;;;;;;;;5023564;28;20056;-61
2022/02/12 11:05:11;;;;;;;8.13;2.38;;;;;;;;;;5045390;28;20116;-58
2022/02/12 11:07:38;;;;;;;5.22;1.52;;;;;;;;;;5044824;28;20052;-58
2022/02/12 11:10:05;;;;;;;7.85;2.17;;;;;;;;;;5022007;28;20049;-61
2022/02/12 11:12:33;;;;;;;9.52;2.30;;;;;;;;;;5028104;28;20076;-59
2022/02/12 11:14:59;;;;;;;10.43;2.80;;;;;;;;;;5022796;28;20501;-60
2022/02/12 11:17:27;;;;;;;11.30;2.40;;;;;;;;;;5028346;28;20063;-58
2022/02/12 11:19:55;;;;;;;9.82;1.95;;;;;;;;;;5039767;28;20053;-61
2022/02/12 11:22:22;;;;;;;6.03;2.08;;;;;;;;;;5046194;28;20049;-59
2022/02/12 11:24:48;;;;;;;14.05;1.90;;;;;;;;;;5024593;28;20056;-61
2022/02/12 11:27:15;;;;;;;8.43;2.72;;;;;;;;;;5039318;28;20072;-60
2022/02/12 11:29:44;;;;;;;9.68;2.47;;;;;;;;;;5039095;28;20499;-63
2022/02/12 11:32:12;;;;;;;6.68;2.15;;;;;;;;;;5028256;28;20060;-56
2022/02/12 11:34:41;;;;;;;10.38;2.88;;;;;;;;;;5022307;28;20118;-59
2022/02/12 11:37:15;;;;;;;9.25;2.58;;;;;;;;;;5028110;28;20111;-58
2022/02/12 11:39:42;;;;;;;9.95;2.20;;;;;;;;;;5037502;28;20052;-58
2022/02/12 11:42:12;;;;;;;8.90;2.30;;;;;;;;;;5028243;28;20049;-60
2022/02/12 11:44:42;;;;;;;7.65;2.28;;;;;;;;;;5022334;28;20099;-60
2022/02/12 11:47:11;;;;;;;7.32;1.73;;;;;;;;;;5027020;28;20562;-59
2022/02/12 11:49:38;;;;;;;11.38;2.10;;;;;;;;;;5021554;28;20111;-61
2022/02/12 11:52:06;;;;;;;9.60;2.22;;;;;;;;;;5027360;28;20144;-63
2022/02/12 11:54:57;;;;;;;5.22;2.05;;;;;;;;;;5027525;28;20049;-57
2022/02/12 11:57:43;;;;;;;11.75;2.50;;;;;;;;;;5007686;28;20151;-62
2022/02/12 12:00:28;;;;;;;9.15;2.20;;;;;;;;;;5020606;28;20056;-59
2022/02/12 12:03:04;;;;;;;10.35;2.33;;;;;;;;;;5044511;28;20057;-61
2022/02/12 12:05:30;;;;;;;13.52;2.63;;;;;;;;;;5021450;28;20111;-61
2022/02/12 12:08:08;;;;;;;6.30;1.80;;;;;;;;;;5027831;28;20046;-61
2022/02/12 12:10:36;;;;;;;9.63;2.15;;;;;;;;;;5018549;28;20054;-62
2022/02/12 12:13:26;;;;;;;9.95;2.35;;;;;;;;;;5010004;28;20053;-60
2022/02/12 12:15:55;;;;;;;10.60;2.10;;;;;;;;;;5020315;28;20049;-59
2022/02/12 12:18:25;;;;;;;9.02;2.13;;;;;;;;;;5024870;28;20108;-63
2022/02/12 12:20:51;;;;;;;10.93;2.45;;;;;;;;;;5021562;28;20065;-59
2022/02/12 12:23:20;;;;;;;9.27;2.08;;;;;;;;;;5027221;28;20369;-58
2022/02/12 12:25:47;;;;;;;;;;;;;;;;;;5027563;28;20300;-59
2022/02/12 12:28:23;;;;;;;6.00;1.88;;;;;;;;;;5022577;28;19996;-59
2022/02/12 12:30:49;;;;;;;6.22;2.22;;;;;;;;;;5011619;28;20117;-58
2022/02/12 12:33:16;;;;;;;2.42;0.75;;;;;;;;;;5002281;28;20144;-59
2022/02/12 12:35:51;;;;;;;11.10;2.33;;;;;;;;;;5026561;28;20099;-58
2022/02/12 12:38:18;;;;;;;9.93;2.17;;;;;;;;;;5004903;28;20061;-57
2022/02/12 12:40:45;;;;;;;8.73;2.15;;;;;;;;;;5023489;28;20458;-60
2022/02/12 12:43:12;;;;;;;20.15;2.42;;;;;;;;;;5032226;28;20057;-59
2022/02/12 12:45:39;;;;;;;8.95;2.20;;;;;;;;;;5026475;28;20069;-61
2022/02/12 12:48:06;;;;;;;6.38;1.67;;;;;;;;;;5009978;28;20392;-63
2022/02/12 12:50:34;;;;;;;10.25;3.08;;;;;;;;;;5023698;28;20395;-61
2022/02/12 12:53:06;;;;;;;11.02;2.35;;;;;;;;;;5018972;28;20141;-62
2022/02/12 12:55:33;;;;;;;9.02;2.40;;;;;;;;;;5007762;28;20046;-65
2022/02/12 12:57:59;;;;;;;14.93;2.33;;;;;;;;;;5008863;28;20049;-63
2022/02/12 13:00:26;;;;;;;9.88;2.40;;;;;;;;;;5026335;28;20057;-63
2022/02/12 13:02:53;;;;;;;7.97;2.10;;;;;;;;;;5021008;28;20052;-62
2022/02/12 13:05:20;;;;;;;6.82;1.90;;;;;;;;;;5026367;28;20061;-64
2022/02/12 13:07:47;;;;;;;10.77;1.90;;;;;;;;;;5018593;28;20065;-63
2022/02/12 13:10:16;;;;;;;5.40;1.55;;;;;;;;;;5007036;28;20081;-62
2022/02/12 13:12:45;;;;;;;;;;;;;;;;;;5002998;28;20056;-63
2022/02/12 13:15:12;;;;;;;;;;;;;;;;;;5043046;28;19925;-63
2022/02/12 13:17:40;;;;;;;6.03;1.45;;;;;;;;;;5043071;28;19956;-61
2022/02/12 13:20:07;;;;;;;6.00;1.75;;;;;;;;;;5019884;28;20058;-63
2022/02/12 13:22:36;;;;;;;7.38;1.77;;;;;;;;;;5026660;28;20049;-63
2022/02/12 13:25:11;;;;;;;7.57;1.90;;;;;;;;;;5021387;28;20065;-64
2022/02/12 13:27:43;;;;;;;3.63;1.73;;;;;;;;;;5026401;28;20123;-63
2022/02/12 13:30:10;;;;;;;4.95;1.77;;;;;;;;;;5005078;28;20515;-63
2022/02/12 13:32:38;;;;;;;9.02;1.70;;;;;;;;;;5006461;28;20050;-63
2022/02/12 13:35:06;;;;;;;14.80;2.13;;;;;;;;;;5013984;28;20077;-63
2022/02/12 13:37:34;;;;;;;5.03;1.63;;;;;;;;;;5026649;28;20056;-64
2022/02/12 13:40:03;;;;;;;;;;;;;;;;;;5021132;28;20115;-62
2022/02/12 13:42:29;;;;;;;7.47;1.60;;;;;;;;;;5024567;28;19928;-64
2022/02/12 13:45:00;;;;;;;3.78;1.25;;;;;;;;;;5017853;28;20052;-57
2022/02/12 13:47:27;;;;;;;6.15;1.88;;;;;;;;;;5026294;28;20049;-62
2022/02/12 13:49:54;;;;;;;7.25;1.48;;;;;;;;;;5013864;28;20050;-63
2022/02/12 13:52:22;;;;;;;10.10;1.95;;;;;;;;;;5007029;28;20054;-63
2022/02/12 13:55:02;;;;;;;10.13;1.92;;;;;;;;;;5004898;28;20053;-61
2022/02/12 13:57:29;;;;;;;9.48;1.77;;;;;;;;;;5045088;28;20107;-61
2022/02/12 13:59:55;;;;;;;8.35;1.23;;;;;;;;;;5043735;28;20565;-62
2022/02/12 14:02:25;;;;;;;6.43;1.80;;;;;;;;;;5065673;28;20041;-58
2022/02/12 14:04:51;;;;;;;11.80;1.77;;;;;;;;;;5057410;28;20076;-62
2022/02/12 14:07:18;;;;;;;12.60;1.50;;;;;;;;;;5045718;28;20128;-62
2022/02/12 14:09:45;;;;;;;5.10;1.30;;;;;;;;;;5045662;28;20052;-59
2022/02/12 14:12:11;;;;;;;7.90;2.10;;;;;;;;;;5057861;28;20040;-61
2022/02/12 14:14:38;;;;;;;6.60;1.50;;;;;;;;;;5050411;28;20045;-62
2022/02/12 14:17:04;;;;;;;6.75;1.80;;;;;;;;;;5039296;28;20138;-64
2022/02/12 14:19:34;;;;;;;5.85;2.08;;;;;;;;;;5046376;28;20103;-64
2022/02/12 14:22:00;;;;;;;7.68;2.00;;;;;;;;;;5040325;28;20230;-59
2022/02/12 14:24:27;;;;;;;11.27;2.03;;;;;;;;;;5052841;28;20057;-63
2022/02/12 14:26:55;;;;;;;8.88;1.80;;;;;;;;;;5036336;28;20084;-62
2022/02/12 14:29:23;;;;;;;12.25;2.20;;;;;;;;;;5062879;28;20419;-62
2022/02/12 14:31:49;;;;;;;5.03;1.63;;;;;;;;;;5056938;28;20123;-62
2022/02/12 14:34:17;;;;;;;7.38;1.73;;;;;;;;;;5029359;28;20308;-60
2022/02/12 14:36:45;;;;;;;9.23;1.83;;;;;;;;;;5023295;28;20049;-62
2022/02/12 14:39:12;;;;;;;9.27;2.13;;;;;;;;;;5029107;28;20059;-60
2022/02/12 14:41:40;;;;;;;6.53;2.05;;;;;;;;;;5023567;28;20052;-59
2022/02/12 14:44:07;;;;;;;7.40;1.70;;;;;;;;;;5045614;28;20505;-57
2022/02/12 14:46:35;;;;;;;6.18;1.55;;;;;;;;;;5022553;28;20365;-60
2022/02/12 14:49:03;;;;;;;8.95;1.83;;;;;;;;;;5029075;28;20049;-61